createdAt,value
2023-02-11T00:01:10.327Z,0.65
2023-02-11T00:03:41.086Z,0.60
2023-02-11T00:06:15.004Z,0.60
2023-02-11T00:08:45.079Z,0.73
2023-02-11T00:11:19.667Z,0.60
2023-02-11T00:13:52.364Z,0.88
2023-02-11T00:16:23.891Z,0.65
2023-02-11T00:18:55.478Z,0.70
2023-02-11T00:21:28.537Z,1.50
2023-02-11T00:24:02.182Z,0.70
2023-02-11T00:26:36.442Z,0.73
2023-02-11T00:29:08.566Z,0.60
2023-02-11T00:31:40.100Z,0.57
2023-02-11T00:34:11.046Z,0.52
2023-02-11T00:36:58.695Z,0.60
2023-02-11T00:39:29.887Z,0.50
2023-02-11T00:42:00.731Z,0.60
2023-02-11T00:44:32.721Z,1.40
2023-02-11T00:47:03.201Z,0.63
2023-02-11T00:49:33.717Z,0.57
2023-02-11T00:52:04.282Z,1.38
2023-02-11T00:54:35.224Z,1.08
2023-02-11T00:57:05.447Z,0.88
2023-02-11T00:59:38.074Z,0.70
2023-02-11T01:02:08.188Z,0.40
2023-02-11T01:04:38.631Z,0.75
2023-02-11T01:07:09.417Z,0.75
2023-02-11T01:09:41.394Z,0.50
2023-02-11T01:12:12.125Z,1.33
2023-02-11T01:14:44.676Z,0.63
2023-02-11T01:17:15.580Z,0.60
2023-02-11T01:19:46.245Z,0.93
2023-02-11T01:22:17.234Z,0.47
2023-02-11T01:24:47.761Z,0.55
2023-02-11T01:27:18.012Z,0.70
2023-02-11T01:29:50.798Z,1.48
2023-02-11T01:32:21.585Z,0.55
2023-02-11T01:34:52.379Z,0.95
2023-02-11T01:37:22.256Z,0.55
2023-02-11T01:39:53.646Z,0.40
2023-02-11T01:42:26.721Z,0.40
2023-02-11T01:45:03.395Z,0.43
2023-02-11T01:47:33.938Z,0.82
2023-02-11T01:50:06.168Z,0.95
2023-02-11T01:52:41.471Z,0.52
2023-02-11T01:55:33.189Z,1.23
2023-02-11T01:58:08.321Z,0.50
2023-02-11T02:00:43.201Z,0.95
2023-02-11T02:03:19.860Z,0.50
2023-02-11T02:06:00.094Z,0.80
2023-02-11T02:08:41.852Z,0.50
2023-02-11T02:11:12.408Z,0.35
2023-02-11T02:13:44.968Z,0.65
2023-02-11T02:16:22.306Z,0.63
2023-02-11T02:19:05.800Z,0.52
2023-02-11T02:22:29.459Z,0.75
2023-02-11T02:25:22.198Z,0.65
2023-02-11T02:28:05.908Z,0.38
2023-02-11T02:31:28.297Z,0.40
2023-02-11T02:34:08.828Z,1.92
2023-02-11T02:36:54.525Z,0.82
2023-02-11T02:39:31.772Z,1.42
2023-02-11T02:42:02.962Z,1.67
2023-02-11T02:44:34.641Z,0.43
2023-02-11T02:47:05.778Z,1.23
2023-02-11T02:49:38.352Z,0.50
2023-02-11T02:52:31.839Z,0.60
2023-02-11T02:55:37.776Z,0.40
2023-02-11T02:58:52.719Z,0.52
2023-02-11T03:01:42.525Z,1.20
2023-02-11T03:04:25.530Z,0.73
2023-02-11T03:07:11.320Z,0.88
2023-02-11T03:09:52.330Z,0.40
2023-02-11T03:12:26.100Z,0.40
2023-02-11T03:14:56.241Z,0.50
2023-02-11T03:17:30.617Z,0.50
2023-02-11T03:20:04.754Z,0.40
2023-02-11T03:22:44.265Z,0.60
2023-02-11T03:25:15.303Z,0.32
2023-02-11T03:27:56.930Z,0.30
2023-02-11T03:30:37.673Z,0.50
2023-02-11T03:33:16.336Z,0.40
2023-02-11T03:35:56.651Z,0.40
2023-02-11T03:38:36.086Z,0.50
2023-02-11T03:41:10.456Z,1.20
2023-02-11T03:43:47.305Z,0.70
2023-02-11T03:46:25.764Z,0.30
2023-02-11T03:49:02.671Z,0.63
2023-02-11T03:51:39.724Z,1.20
2023-02-11T03:54:19.298Z,0.47
2023-02-11T03:56:57.567Z,0.70
2023-02-11T03:59:28.051Z,0.52
2023-02-11T04:01:59.870Z,0.77
2023-02-11T04:04:30.518Z,0.80
2023-02-11T04:07:01.698Z,0.50
2023-02-11T04:09:39.532Z,0.80
2023-02-11T04:12:11.026Z,0.63
2023-02-11T04:14:41.676Z,0.40
2023-02-11T04:17:12.493Z,0.20
2023-02-11T04:19:43.158Z,0.50
2023-02-11T04:22:14.715Z,0.85
2023-02-11T04:24:47.426Z,0.68
2023-02-11T04:27:17.713Z,0.40
2023-02-11T04:29:48.694Z,0.45
2023-02-11T04:32:19.614Z,1.92
2023-02-11T04:34:50.024Z,0.30
2023-02-11T04:37:20.051Z,0.20
2023-02-11T04:39:52.562Z,0.68
2023-02-11T04:42:22.767Z,1.08
2023-02-11T04:44:53.156Z,0.68
2023-02-11T04:47:23.310Z,1.08
2023-02-11T04:49:54.483Z,0.98
2023-02-11T04:52:25.500Z,1.13
2023-02-11T04:54:58.432Z,0.50
2023-02-11T04:57:29.881Z,0.60
2023-02-11T05:00:00.450Z,0.43
2023-02-11T05:02:31.109Z,0.85
2023-02-11T05:05:01.922Z,0.73
2023-02-11T05:07:32.481Z,0.77
2023-02-11T05:10:05.012Z,0.20
2023-02-11T05:12:34.992Z,2.42
2023-02-11T05:15:05.455Z,0.40
2023-02-11T05:17:36.285Z,0.35
2023-02-11T05:20:08.005Z,0.50
2023-02-11T05:22:39.082Z,1.08
2023-02-11T05:25:13.194Z,1.30
2023-02-11T05:27:43.920Z,0.38
2023-02-11T05:30:15.384Z,0.60
2023-02-11T05:32:45.539Z,0.55
2023-02-11T05:35:16.235Z,0.75
2023-02-11T05:37:47.403Z,0.47
2023-02-11T05:40:20.244Z,0.30
2023-02-11T05:42:50.741Z,0.73
2023-02-11T05:45:21.484Z,0.60
2023-02-11T05:47:52.137Z,0.35
2023-02-11T05:50:22.904Z,0.77
2023-02-11T05:52:53.844Z,0.65
2023-02-11T05:55:27.277Z,0.40
2023-02-11T05:57:57.058Z,0.40
2023-02-11T06:00:28.760Z,1.73
2023-02-11T06:02:59.293Z,0.35
2023-02-11T06:05:30.300Z,0.35
2023-02-11T06:08:01.308Z,0.50
2023-02-11T06:10:33.936Z,0.95
2023-02-11T06:13:05.323Z,0.40
2023-02-11T06:15:35.895Z,0.70
2023-02-11T06:18:06.763Z,0.63
2023-02-11T06:20:37.857Z,0.40
2023-02-11T06:23:08.300Z,0.68
2023-02-11T06:25:41.648Z,0.82
2023-02-11T06:28:12.714Z,0.40
2023-02-11T06:30:44.182Z,1.35
2023-02-11T06:33:16.358Z,0.90
2023-02-11T06:35:46.032Z,1.05
2023-02-11T06:38:16.474Z,0.98
2023-02-11T06:40:53.247Z,0.40
2023-02-11T06:43:23.164Z,0.63
2023-02-11T06:45:56.399Z,0.70
2023-02-11T06:48:26.804Z,1.17
2023-02-11T06:50:56.991Z,0.50
2023-02-11T06:53:27.618Z,0.60
2023-02-11T06:56:05.354Z,1.00
2023-02-11T06:58:37.418Z,0.80
2023-02-11T07:01:10.271Z,0.70
2023-02-11T07:03:43.539Z,1.27
2023-02-11T07:06:20.647Z,0.60
2023-02-11T07:08:51.598Z,0.60
2023-02-11T07:11:27.535Z,0.63
2023-02-11T07:14:03.490Z,0.70
2023-02-11T07:16:35.605Z,0.57
2023-02-11T07:19:06.191Z,1.17
2023-02-11T07:21:37.134Z,0.70
2023-02-11T07:24:11.185Z,0.68
2023-02-11T07:26:45.169Z,0.70
2023-02-11T07:29:15.358Z,0.75
2023-02-11T07:31:45.466Z,0.60
2023-02-11T07:34:16.124Z,1.48
2023-02-11T07:36:46.653Z,0.85
2023-02-11T07:39:17.410Z,1.23
2023-02-11T07:41:49.794Z,1.48
2023-02-11T07:44:20.409Z,1.65
2023-02-11T07:46:51.210Z,0.80
2023-02-11T07:49:21.811Z,1.20
2023-02-11T07:51:52.366Z,0.90
2023-02-11T07:54:22.485Z,0.80
2023-02-11T07:56:55.386Z,2.05
2023-02-11T07:59:25.791Z,1.05
2023-02-11T08:01:56.461Z,1.20
2023-02-11T08:04:27.057Z,1.30
2023-02-11T08:06:59.380Z,1.48
2023-02-11T08:09:29.642Z,1.30
2023-02-11T08:12:02.536Z,1.83
2023-02-11T08:14:33.787Z,1.60
2023-02-11T08:17:04.044Z,1.67
2023-02-11T08:19:35.348Z,0.95
2023-02-11T08:22:06.560Z,1.00
2023-02-11T08:24:37.155Z,1.42
2023-02-11T08:27:09.766Z,1.40
2023-02-11T08:29:39.793Z,1.08
2023-02-11T08:32:10.526Z,2.00
2023-02-11T08:34:40.392Z,2.53
2023-02-11T08:37:11.492Z,1.98
2023-02-11T08:39:42.235Z,1.20
2023-02-11T08:42:15.852Z,2.75
2023-02-11T08:44:46.961Z,2.08
2023-02-11T08:47:18.025Z,1.40
2023-02-11T08:49:48.797Z,1.05
2023-02-11T08:52:19.602Z,0.68
2023-02-11T08:54:49.865Z,0.63
2023-02-11T08:57:23.191Z,0.82
2023-02-11T08:59:54.590Z,2.70
2023-02-11T09:02:25.881Z,0.65
2023-02-11T09:04:56.463Z,2.47
2023-02-11T09:07:26.546Z,1.23
2023-02-11T09:09:57.467Z,1.48
2023-02-11T09:12:30.703Z,1.95
2023-02-11T09:15:01.068Z,1.08
2023-02-11T09:17:32.260Z,3.40
2023-02-11T09:20:04.520Z,1.10
2023-02-11T09:22:35.779Z,2.70
2023-02-11T09:25:05.888Z,1.92
2023-02-11T09:27:37.992Z,0.85
2023-02-11T09:30:09.873Z,0.88
2023-02-11T09:32:41.791Z,1.75
2023-02-11T09:35:12.592Z,1.50
2023-02-11T09:37:43.279Z,1.42
2023-02-11T09:40:15.476Z,1.67
2023-02-11T09:43:00.407Z,1.05
2023-02-11T09:45:34.168Z,0.65
2023-02-11T09:48:12.619Z,0.75
2023-02-11T09:50:53.267Z,1.65
2023-02-11T09:53:28.257Z,1.45
2023-02-11T09:56:02.158Z,2.08
2023-02-11T09:58:39.727Z,0.80
2023-02-11T10:01:25.942Z,2.28
2023-02-11T10:04:10.244Z,0.63
2023-02-11T10:06:47.068Z,2.47
2023-02-11T10:09:48.270Z,0.73
2023-02-11T10:12:45.476Z,1.63
2023-02-11T10:15:46.842Z,0.93
2023-02-11T10:18:42.808Z,2.60
2023-02-11T10:21:41.791Z,0.50
2023-02-11T10:24:16.521Z,1.55
2023-02-11T10:26:48.588Z,1.52
2023-02-11T10:29:38.143Z,0.70
2023-02-11T10:32:29.496Z,1.10
2023-02-11T10:35:06.286Z,1.75
2023-02-11T10:37:36.995Z,1.48
2023-02-11T10:40:14.533Z,1.50
2023-02-11T10:42:48.704Z,0.88
2023-02-11T10:45:31.924Z,0.70
2023-02-11T10:48:06.929Z,1.65
2023-02-11T10:50:38.288Z,1.90
2023-02-11T10:53:26.454Z,1.20
2023-02-11T10:56:00.306Z,0.80
2023-02-11T10:58:37.580Z,0.80
2023-02-11T11:01:23.912Z,2.05
2023-02-11T11:04:00.452Z,1.38
2023-02-11T11:06:36.624Z,1.55
2023-02-11T11:09:07.732Z,2.25
2023-02-11T11:11:55.756Z,0.90
2023-02-11T11:14:30.070Z,0.73
2023-02-11T11:17:00.122Z,2.20
2023-02-11T11:19:33.686Z,2.00
2023-02-11T11:22:04.532Z,1.73
2023-02-11T11:24:43.131Z,1.58
2023-02-11T11:27:23.672Z,1.35
2023-02-11T11:29:59.061Z,2.03
2023-02-11T11:32:34.632Z,1.42
2023-02-11T11:35:23.572Z,1.38
2023-02-11T11:38:02.015Z,1.42
2023-02-11T11:40:34.238Z,1.13
2023-02-11T11:43:23.413Z,1.27
2023-02-11T11:45:58.698Z,3.90
2023-02-11T11:48:34.113Z,1.30
2023-02-11T11:51:12.456Z,2.03
2023-02-11T11:53:51.011Z,0.93
2023-02-11T11:56:26.354Z,1.52
2023-02-11T11:58:57.813Z,0.80
2023-02-11T12:01:44.540Z,1.95
2023-02-11T12:04:49.464Z,1.48
2023-02-11T12:07:39.866Z,0.90
2023-02-11T12:10:46.754Z,2.08
2023-02-11T12:13:33.146Z,2.35
2023-02-11T12:16:17.910Z,1.27
2023-02-11T12:19:37.163Z,1.08
2023-02-11T12:22:41.100Z,1.10
2023-02-11T12:25:29.874Z,0.80
2023-02-11T12:28:19.818Z,1.70
2023-02-11T12:31:16.627Z,2.05
2023-02-11T12:34:26.745Z,0.80
2023-02-11T12:37:20.799Z,2.00
2023-02-11T12:40:12.133Z,1.38
2023-02-11T12:43:20.346Z,1.08
2023-02-11T12:46:36.511Z,1.45
2023-02-11T12:49:34.383Z,1.02
2023-02-11T12:52:25.768Z,2.08
2023-02-11T12:55:04.046Z,2.25
2023-02-11T12:57:39.141Z,1.85
2023-02-11T13:00:22.593Z,2.13
2023-02-11T13:03:02.972Z,2.00
2023-02-11T13:05:40.966Z,1.15
2023-02-11T13:08:19.023Z,1.27
2023-02-11T13:10:57.434Z,0.93
2023-02-11T13:13:36.892Z,0.98
2023-02-11T13:16:15.680Z,0.93
2023-02-11T13:18:55.759Z,1.40
2023-02-11T13:21:56.847Z,1.65
2023-02-11T13:24:41.290Z,1.88
2023-02-11T13:27:34.100Z,1.17
2023-02-11T13:30:33.771Z,1.73
2023-02-11T13:33:20.534Z,1.10
2023-02-11T13:36:22.200Z,0.75
2023-02-11T13:39:04.645Z,1.80
2023-02-11T13:41:42.986Z,2.25
2023-02-11T13:44:38.604Z,1.05
2023-02-11T13:47:10.447Z,1.80
2023-02-11T13:49:44.347Z,1.10
2023-02-11T13:52:28.676Z,2.22
2023-02-11T13:55:07.437Z,0.80
2023-02-11T13:57:42.096Z,1.73
2023-02-11T14:00:54.845Z,1.10
2023-02-11T14:03:53.540Z,1.90
2023-02-11T14:06:45.256Z,1.70
2023-02-11T14:09:43.511Z,1.58
2023-02-11T14:12:35.351Z,1.58
2023-02-11T14:15:31.425Z,0.88
2023-02-11T14:18:04.506Z,1.23
2023-02-11T14:20:48.503Z,1.30
2023-02-11T14:23:29.434Z,0.98
2023-02-11T14:26:32.503Z,1.27
2023-02-11T14:29:15.356Z,0.93
2023-02-11T14:31:56.851Z,1.08
2023-02-11T14:34:56.156Z,3.00
2023-02-11T14:37:50.813Z,1.45
2023-02-11T14:40:32.773Z,1.55
2023-02-11T14:43:15.493Z,1.33
2023-02-11T14:45:56.587Z,1.30
2023-02-11T14:48:43.289Z,1.15
2023-02-11T14:51:23.784Z,1.98
2023-02-11T14:53:58.207Z,1.13
2023-02-11T14:56:35.696Z,1.25
2023-02-11T14:59:06.234Z,1.00
2023-02-11T15:01:43.039Z,1.80
2023-02-11T15:04:29.066Z,0.95
2023-02-11T15:07:12.442Z,1.38
2023-02-11T15:09:46.678Z,0.85
2023-02-11T15:12:24.206Z,2.30
2023-02-11T15:14:58.992Z,1.40
2023-02-11T15:17:34.880Z,0.85
2023-02-11T15:20:05.441Z,0.90
2023-02-11T15:22:40.381Z,0.82
2023-02-11T15:25:16.655Z,1.17
2023-02-11T15:27:49.508Z,0.82
2023-02-11T15:30:36.242Z,0.60
2023-02-11T15:33:10.201Z,1.95
2023-02-11T15:35:43.245Z,1.17
2023-02-11T15:38:16.554Z,1.08
2023-02-11T15:40:57.338Z,0.90
2023-02-11T15:43:43.908Z,1.80
2023-02-11T15:46:19.164Z,1.15
2023-02-11T15:48:53.789Z,1.23
2023-02-11T15:51:29.925Z,0.93
2023-02-11T15:54:07.218Z,1.70
2023-02-11T15:56:44.167Z,0.90
2023-02-11T15:59:24.865Z,0.90
2023-02-11T16:01:57.779Z,1.17
2023-02-11T16:04:29.809Z,1.38
2023-02-11T16:07:00.848Z,0.85
2023-02-11T16:10:00.857Z,1.20
2023-02-11T16:12:31.628Z,1.65
2023-02-11T16:15:04.382Z,0.90
2023-02-11T16:17:35.015Z,0.82
2023-02-11T16:20:06.483Z,0.50
2023-02-11T16:22:38.656Z,0.60
2023-02-11T16:25:22.058Z,0.80
2023-02-11T16:27:56.234Z,0.77
2023-02-11T16:30:34.623Z,0.75
2023-02-11T16:33:05.990Z,0.85
2023-02-11T16:35:37.879Z,1.15
2023-02-11T16:38:08.582Z,0.85
2023-02-11T16:40:40.671Z,0.77
2023-02-11T16:43:10.978Z,1.00
2023-02-11T16:45:42.429Z,1.15
2023-02-11T16:48:19.116Z,1.10
2023-02-11T16:50:53.542Z,0.73
2023-02-11T16:53:28.153Z,0.80
2023-02-11T16:56:02.025Z,1.00
2023-02-11T16:58:34.924Z,1.40
2023-02-11T17:01:05.280Z,0.73
2023-02-11T17:03:40.667Z,1.30
2023-02-11T17:06:14.230Z,0.77
2023-02-11T17:08:45.074Z,0.65
2023-02-11T17:11:17.878Z,0.82
2023-02-11T17:13:49.179Z,0.55
2023-02-11T17:16:22.946Z,0.63
2023-02-11T17:18:53.327Z,0.90
2023-02-11T17:21:28.202Z,0.60
2023-02-11T17:24:03.444Z,0.73
2023-02-11T17:26:37.334Z,1.08
2023-02-11T17:29:09.368Z,1.13
2023-02-11T17:31:40.706Z,1.00
2023-02-11T17:34:11.435Z,0.88
2023-02-11T17:36:42.622Z,0.95
2023-02-11T17:39:14.317Z,0.65
2023-02-11T17:41:47.197Z,0.80
2023-02-11T17:44:17.569Z,0.75
2023-02-11T17:46:47.801Z,1.10
2023-02-11T17:49:18.424Z,1.30
2023-02-11T17:51:49.795Z,1.90
2023-02-11T17:54:22.439Z,1.08
2023-02-11T17:56:58.062Z,1.27
2023-02-11T17:59:32.179Z,0.63
2023-02-11T18:02:02.566Z,1.05
2023-02-11T18:04:34.850Z,0.85
2023-02-11T18:07:05.092Z,0.82
2023-02-11T18:09:40.593Z,1.42
2023-02-11T18:12:13.727Z,1.02
2023-02-11T18:14:44.626Z,1.10
2023-02-11T18:17:14.780Z,0.77
2023-02-11T18:19:45.331Z,0.75
2023-02-11T18:22:16.328Z,1.17
2023-02-11T18:24:47.653Z,1.83
2023-02-11T18:27:19.836Z,1.15
2023-02-11T18:29:55.134Z,0.70
2023-02-11T18:32:25.464Z,0.77
2023-02-11T18:34:55.588Z,1.10
2023-02-11T18:37:26.213Z,1.13
2023-02-11T18:39:56.475Z,1.10
2023-02-11T18:42:29.163Z,2.22
2023-02-11T18:44:59.827Z,1.00
2023-02-11T18:47:30.495Z,1.30
2023-02-11T18:50:01.533Z,1.25
2023-02-11T18:52:32.185Z,1.10
2023-02-11T18:55:03.216Z,1.08
2023-02-11T18:57:37.415Z,1.73
2023-02-11T19:00:10.589Z,1.00
2023-02-11T19:02:41.074Z,1.30
2023-02-11T19:05:11.995Z,1.17
2023-02-11T19:07:41.828Z,1.25
2023-02-11T19:10:14.115Z,1.45
2023-02-11T19:12:46.562Z,1.27
2023-02-11T19:15:18.031Z,1.40
2023-02-11T19:17:48.562Z,1.27
2023-02-11T19:20:19.915Z,1.08
2023-02-11T19:22:51.571Z,1.20
2023-02-11T19:25:22.022Z,1.85
2023-02-11T19:27:54.358Z,1.30
2023-02-11T19:30:24.626Z,2.42
2023-02-11T19:32:57.709Z,2.42
2023-02-11T19:35:28.380Z,2.00
2023-02-11T19:37:59.699Z,1.90
2023-02-11T19:40:30.455Z,3.47
2023-02-11T19:43:03.523Z,2.28
2023-02-11T19:45:36.171Z,1.90
2023-02-11T19:48:06.739Z,1.75
2023-02-11T19:50:37.314Z,1.65
2023-02-11T19:53:08.039Z,2.20
2023-02-11T19:55:38.203Z,2.00
2023-02-11T19:58:11.297Z,2.10
2023-02-11T20:00:41.341Z,1.80
2023-02-11T20:03:12.030Z,1.90
2023-02-11T20:05:47.422Z,1.98
2023-02-11T20:08:19.690Z,1.70
2023-02-11T20:10:50.385Z,2.20
2023-02-11T20:13:23.749Z,1.80
2023-02-11T20:15:54.767Z,1.75
2023-02-11T20:18:25.604Z,1.80
2023-02-11T20:20:56.116Z,2.05
2023-02-11T20:23:26.733Z,2.05
2023-02-11T20:25:57.609Z,2.97
2023-02-11T20:28:30.061Z,1.60
2023-02-11T20:31:01.196Z,2.90
2023-02-11T20:33:32.506Z,2.17
2023-02-11T20:36:06.137Z,1.88
2023-02-11T20:38:36.814Z,2.05
2023-02-11T20:41:10.659Z,2.10
2023-02-11T20:43:46.193Z,2.20
2023-02-11T20:46:19.368Z,2.00
2023-02-11T20:48:50.232Z,2.10
2023-02-11T20:51:24.016Z,1.75
2023-02-11T20:53:55.701Z,2.15
2023-02-11T20:56:29.240Z,1.90
2023-02-11T20:59:06.071Z,2.03
2023-02-11T21:01:41.526Z,2.30
2023-02-11T21:04:16.363Z,2.22
2023-02-11T21:06:49.455Z,2.15
2023-02-11T21:09:23.219Z,1.85
2023-02-11T21:11:55.760Z,1.98
2023-02-11T21:14:29.473Z,1.95
2023-02-11T21:17:00.780Z,2.35
2023-02-11T21:19:31.682Z,2.00
2023-02-11T21:22:02.658Z,2.17
2023-02-11T21:24:33.344Z,2.13
2023-02-11T21:27:03.877Z,2.10
2023-02-11T21:29:45.747Z,2.25
2023-02-11T21:32:23.122Z,1.95
2023-02-11T21:34:57.427Z,2.22
2023-02-11T21:37:32.435Z,2.22
2023-02-11T21:40:08.740Z,2.95
2023-02-11T21:42:39.031Z,2.25
2023-02-11T21:45:14.177Z,2.42
2023-02-11T21:47:44.696Z,2.35
2023-02-11T21:50:17.988Z,2.53
2023-02-11T21:52:49.931Z,3.42
2023-02-11T21:55:31.065Z,2.70
2023-02-11T21:58:01.834Z,2.80
2023-02-11T22:00:37.695Z,4.45
2023-02-11T22:03:08.487Z,3.08
2023-02-11T22:05:43.323Z,2.67
2023-02-11T22:08:13.997Z,2.70
2023-02-11T22:10:44.822Z,2.72
2023-02-11T22:13:15.592Z,2.88
2023-02-11T22:15:47.668Z,2.85
2023-02-11T22:18:18.528Z,2.85
2023-02-11T22:21:00.209Z,3.38
2023-02-11T22:23:31.853Z,2.55
2023-02-11T22:26:08.216Z,2.60
2023-02-11T22:28:41.017Z,2.60
2023-02-11T22:31:18.254Z,4.15
2023-02-11T22:33:49.181Z,2.60
2023-02-11T22:36:22.888Z,4.30
2023-02-11T22:38:54.591Z,2.55
2023-02-11T22:41:25.457Z,2.30
2023-02-11T22:43:56.258Z,2.78
2023-02-11T22:46:30.040Z,2.60
2023-02-11T22:49:00.903Z,2.22
2023-02-11T22:51:33.117Z,2.38
2023-02-11T22:54:07.793Z,2.20
2023-02-11T22:56:38.300Z,2.55
2023-02-11T22:59:11.322Z,3.13
2023-02-11T23:01:44.597Z,2.78
2023-02-11T23:04:17.389Z,2.30
2023-02-11T23:06:50.792Z,2.20
2023-02-11T23:09:21.652Z,2.10
2023-02-11T23:11:55.566Z,2.17
2023-02-11T23:14:26.110Z,2.40
2023-02-11T23:16:58.434Z,2.30
2023-02-11T23:19:28.592Z,2.30
2023-02-11T23:21:59.333Z,2.40
2023-02-11T23:24:30.094Z,1.90
2023-02-11T23:27:00.215Z,1.80
2023-02-11T23:29:30.925Z,2.10
2023-02-11T23:32:03.693Z,2.10
2023-02-11T23:34:34.447Z,2.42
2023-02-11T23:37:04.790Z,2.30
2023-02-11T23:39:34.816Z,2.15
2023-02-11T23:42:05.848Z,2.05
2023-02-11T23:44:36.625Z,2.03
2023-02-11T23:47:09.474Z,2.35
2023-02-11T23:49:39.309Z,3.17
2023-02-11T23:52:09.801Z,2.15
2023-02-11T23:54:40.563Z,2.30
2023-02-11T23:57:11.224Z,1.98
2023-02-11T23:59:43.213Z,2.08
